sensor_id;sensor_type;location;lat;lon;timestamp;P1;durP1;ratioP1;P2;durP2;ratioP2
37937;SDS011;23763;48.130;11.602;2023-07-13T00:01:30;7.68;;;7.28;;
37937;SDS011;23763;48.130;11.602;2023-07-13T00:03:57;8.40;;;7.90;;
37937;SDS011;23763;48.130;11.602;2023-07-13T00:06:23;8.57;;;8.13;;
37937;SDS011;23763;48.130;11.602;2023-07-13T00:08:49;8.60;;;8.07;;
37937;SDS011;23763;48.130;11.602;2023-07-13T00:11:15;8.55;;;8.05;;
37937;SDS011;23763;48.130;11.602;2023-07-13T00:13:42;8.15;;;7.55;;
37937;SDS011;23763;48.130;11.602;2023-07-13T00:16:08;8.30;;;7.80;;
37937;SDS011;23763;48.130;11.602;2023-07-13T00:18:35;8.25;;;7.65;;
37937;SDS011;23763;48.130;11.602;2023-07-13T00:21:02;8.55;;;8.15;;
37937;SDS011;23763;48.130;11.602;2023-07-13T00:23:34;8.43;;;8.02;;
37937;SDS011;23763;48.130;11.602;2023-07-13T00:26:02;8.05;;;7.65;;
37937;SDS011;23763;48.130;11.602;2023-07-13T00:28:29;8.30;;;7.78;;
37937;SDS011;23763;48.130;11.602;2023-07-13T00:30:55;8.20;;;7.70;;
37937;SDS011;23763;48.130;11.602;2023-07-13T00:33:21;7.80;;;7.40;;
37937;SDS011;23763;48.130;11.602;2023-07-13T00:35:47;7.72;;;7.28;;
37937;SDS011;23763;48.130;11.602;2023-07-13T00:38:14;7.70;;;7.30;;
37937;SDS011;23763;48.130;11.602;2023-07-13T00:40:40;8.00;;;7.50;;
37937;SDS011;23763;48.130;11.602;2023-07-13T00:43:13;8.02;;;7.57;;
37937;SDS011;23763;48.130;11.602;2023-07-13T00:48:15;8.05;;;7.55;;
37937;SDS011;23763;48.130;11.602;2023-07-13T00:50:45;8.00;;;7.60;;
37937;SDS011;23763;48.130;11.602;2023-07-13T00:53:14;7.80;;;7.40;;
37937;SDS011;23763;48.130;11.602;2023-07-13T00:55:40;8.50;;;7.88;;
37937;SDS011;23763;48.130;11.602;2023-07-13T00:58:06;8.43;;;7.88;;
37937;SDS011;23763;48.130;11.602;2023-07-13T01:00:33;8.05;;;7.55;;
37937;SDS011;23763;48.130;11.602;2023-07-13T01:03:01;7.55;;;7.22;;
37937;SDS011;23763;48.130;11.602;2023-07-13T01:05:29;7.68;;;7.28;;
37937;SDS011;23763;48.130;11.602;2023-07-13T01:07:57;8.10;;;7.60;;
37937;SDS011;23763;48.130;11.602;2023-07-13T01:10:24;8.32;;;7.65;;
37937;SDS011;23763;48.130;11.602;2023-07-13T01:12:50;7.90;;;7.50;;
37937;SDS011;23763;48.130;11.602;2023-07-13T01:18:07;8.20;;;7.70;;
37937;SDS011;23763;48.130;11.602;2023-07-13T01:20:36;8.23;;;7.45;;
37937;SDS011;23763;48.130;11.602;2023-07-13T01:23:06;7.47;;;7.07;;
37937;SDS011;23763;48.130;11.602;2023-07-13T01:25:34;7.72;;;7.28;;
37937;SDS011;23763;48.130;11.602;2023-07-13T01:28:02;7.93;;;7.53;;
37937;SDS011;23763;48.130;11.602;2023-07-13T01:30:28;7.50;;;7.13;;
37937;SDS011;23763;48.130;11.602;2023-07-13T01:32:54;7.80;;;7.30;;
37937;SDS011;23763;48.130;11.602;2023-07-13T01:35:19;7.82;;;7.43;;
37937;SDS011;23763;48.130;11.602;2023-07-13T01:37:45;8.23;;;7.78;;
37937;SDS011;23763;48.130;11.602;2023-07-13T01:40:11;7.93;;;7.53;;
37937;SDS011;23763;48.130;11.602;2023-07-13T01:42:37;7.50;;;7.10;;
37937;SDS011;23763;48.130;11.602;2023-07-13T01:45:03;7.28;;;6.88;;
37937;SDS011;23763;48.130;11.602;2023-07-13T01:47:29;7.18;;;6.78;;
37937;SDS011;23763;48.130;11.602;2023-07-13T01:49:56;7.70;;;7.15;;
37937;SDS011;23763;48.130;11.602;2023-07-13T01:52:22;7.75;;;7.25;;
37937;SDS011;23763;48.130;11.602;2023-07-13T01:54:47;7.13;;;6.72;;
37937;SDS011;23763;48.130;11.602;2023-07-13T01:57:13;7.25;;;6.85;;
37937;SDS011;23763;48.130;11.602;2023-07-13T01:59:38;8.05;;;7.55;;
37937;SDS011;23763;48.130;11.602;2023-07-13T02:02:04;8.10;;;7.50;;
37937;SDS011;23763;48.130;11.602;2023-07-13T02:04:30;8.63;;;8.20;;
37937;SDS011;23763;48.130;11.602;2023-07-13T02:06:55;9.02;;;8.52;;
37937;SDS011;23763;48.130;11.602;2023-07-13T02:09:21;9.00;;;8.50;;
37937;SDS011;23763;48.130;11.602;2023-07-13T02:11:46;8.48;;;7.90;;
37937;SDS011;23763;48.130;11.602;2023-07-13T02:14:13;8.95;;;8.35;;
37937;SDS011;23763;48.130;11.602;2023-07-13T02:16:40;8.75;;;8.30;;
37937;SDS011;23763;48.130;11.602;2023-07-13T02:19:06;9.02;;;8.43;;
37937;SDS011;23763;48.130;11.602;2023-07-13T02:21:32;9.55;;;8.88;;
37937;SDS011;23763;48.130;11.602;2023-07-13T02:23:58;9.02;;;8.52;;
37937;SDS011;23763;48.130;11.602;2023-07-13T02:26:24;9.07;;;8.57;;
37937;SDS011;23763;48.130;11.602;2023-07-13T02:28:51;9.52;;;8.93;;
37937;SDS011;23763;48.130;11.602;2023-07-13T02:31:16;8.55;;;8.15;;
37937;SDS011;23763;48.130;11.602;2023-07-13T02:33:42;9.27;;;8.75;;
37937;SDS011;23763;48.130;11.602;2023-07-13T02:36:08;10.13;;;9.50;;
37937;SDS011;23763;48.130;11.602;2023-07-13T02:38:34;9.50;;;9.00;;
37937;SDS011;23763;48.130;11.602;2023-07-13T02:41:01;10.25;;;9.57;;
37937;SDS011;23763;48.130;11.602;2023-07-13T02:43:27;10.45;;;9.55;;
37937;SDS011;23763;48.130;11.602;2023-07-13T02:45:53;7.72;;;7.13;;
37937;SDS011;23763;48.130;11.602;2023-07-13T02:48:18;8.18;;;7.45;;
37937;SDS011;23763;48.130;11.602;2023-07-13T02:50:44;8.27;;;7.53;;
37937;SDS011;23763;48.130;11.602;2023-07-13T02:53:10;10.25;;;9.65;;
37937;SDS011;23763;48.130;11.602;2023-07-13T02:55:36;11.60;;;10.57;;
37937;SDS011;23763;48.130;11.602;2023-07-13T02:58:02;12.23;;;11.43;;
37937;SDS011;23763;48.130;11.602;2023-07-13T03:00:28;13.13;;;12.43;;
37937;SDS011;23763;48.130;11.602;2023-07-13T03:02:53;13.65;;;12.85;;
37937;SDS011;23763;48.130;11.602;2023-07-13T03:05:21;13.93;;;12.98;;
37937;SDS011;23763;48.130;11.602;2023-07-13T03:07:47;13.23;;;12.40;;
37937;SDS011;23763;48.130;11.602;2023-07-13T03:10:13;14.23;;;13.10;;
37937;SDS011;23763;48.130;11.602;2023-07-13T03:12:39;14.73;;;13.77;;
37937;SDS011;23763;48.130;11.602;2023-07-13T03:15:04;15.18;;;14.02;;
37937;SDS011;23763;48.130;11.602;2023-07-13T03:17:30;14.77;;;13.90;;
37937;SDS011;23763;48.130;11.602;2023-07-13T03:19:56;14.65;;;13.85;;
37937;SDS011;23763;48.130;11.602;2023-07-13T03:22:22;14.25;;;13.52;;
37937;SDS011;23763;48.130;11.602;2023-07-13T03:24:47;13.88;;;13.18;;
37937;SDS011;23763;48.130;11.602;2023-07-13T03:27:13;15.63;;;14.48;;
37937;SDS011;23763;48.130;11.602;2023-07-13T03:29:39;14.85;;;13.77;;
37937;SDS011;23763;48.130;11.602;2023-07-13T03:32:05;14.55;;;13.60;;
37937;SDS011;23763;48.130;11.602;2023-07-13T03:34:31;14.23;;;13.40;;
37937;SDS011;23763;48.130;11.602;2023-07-13T03:36:57;14.35;;;13.52;;
37937;SDS011;23763;48.130;11.602;2023-07-13T03:39:23;14.50;;;13.70;;
37937;SDS011;23763;48.130;11.602;2023-07-13T03:41:49;14.15;;;13.35;;
37937;SDS011;23763;48.130;11.602;2023-07-13T03:44:17;14.48;;;13.68;;
37937;SDS011;23763;48.130;11.602;2023-07-13T03:46:43;14.27;;;13.32;;
37937;SDS011;23763;48.130;11.602;2023-07-13T03:49:10;14.77;;;13.57;;
37937;SDS011;23763;48.130;11.602;2023-07-13T03:51:36;14.20;;;13.30;;
37937;SDS011;23763;48.130;11.602;2023-07-13T03:54:01;13.23;;;12.50;;
37937;SDS011;23763;48.130;11.602;2023-07-13T03:56:27;14.00;;;13.23;;
37937;SDS011;23763;48.130;11.602;2023-07-13T03:58:55;13.35;;;12.70;;
37937;SDS011;23763;48.130;11.602;2023-07-13T04:01:21;13.45;;;12.65;;
37937;SDS011;23763;48.130;11.602;2023-07-13T04:03:48;13.00;;;12.30;;
37937;SDS011;23763;48.130;11.602;2023-07-13T04:06:19;13.70;;;12.80;;
37937;SDS011;23763;48.130;11.602;2023-07-13T04:08:48;13.65;;;12.85;;
37937;SDS011;23763;48.130;11.602;2023-07-13T04:11:15;13.57;;;12.75;;
37937;SDS011;23763;48.130;11.602;2023-07-13T04:13:41;14.13;;;13.38;;
37937;SDS011;23763;48.130;11.602;2023-07-13T04:16:07;13.43;;;12.63;;
37937;SDS011;23763;48.130;11.602;2023-07-13T04:18:32;13.32;;;12.63;;
37937;SDS011;23763;48.130;11.602;2023-07-13T04:20:58;13.90;;;12.82;;
37937;SDS011;23763;48.130;11.602;2023-07-13T04:23:23;13.23;;;12.50;;
37937;SDS011;23763;48.130;11.602;2023-07-13T04:25:51;13.65;;;12.88;;
37937;SDS011;23763;48.130;11.602;2023-07-13T04:28:18;13.32;;;12.52;;
37937;SDS011;23763;48.130;11.602;2023-07-13T04:30:45;12.80;;;12.00;;
37937;SDS011;23763;48.130;11.602;2023-07-13T04:33:10;11.60;;;10.90;;
37937;SDS011;23763;48.130;11.602;2023-07-13T04:35:36;11.65;;;11.02;;
37937;SDS011;23763;48.130;11.602;2023-07-13T04:38:02;12.85;;;11.90;;
37937;SDS011;23763;48.130;11.602;2023-07-13T04:40:28;11.57;;;10.77;;
37937;SDS011;23763;48.130;11.602;2023-07-13T04:42:54;12.70;;;11.70;;
37937;SDS011;23763;48.130;11.602;2023-07-13T04:45:21;11.38;;;10.77;;
37937;SDS011;23763;48.130;11.602;2023-07-13T04:47:49;11.60;;;10.90;;
37937;SDS011;23763;48.130;11.602;2023-07-13T04:50:14;11.23;;;10.52;;
37937;SDS011;23763;48.130;11.602;2023-07-13T04:52:44;11.73;;;10.95;;
37937;SDS011;23763;48.130;11.602;2023-07-13T04:55:10;11.50;;;10.80;;
37937;SDS011;23763;48.130;11.602;2023-07-13T04:57:36;10.60;;;10.00;;
37937;SDS011;23763;48.130;11.602;2023-07-13T05:00:02;10.70;;;10.10;;
37937;SDS011;23763;48.130;11.602;2023-07-13T05:02:31;10.50;;;9.77;;
37937;SDS011;23763;48.130;11.602;2023-07-13T05:04:57;10.75;;;9.95;;
37937;SDS011;23763;48.130;11.602;2023-07-13T05:07:24;10.38;;;9.63;;
37937;SDS011;23763;48.130;11.602;2023-07-13T05:09:50;10.02;;;9.35;;
37937;SDS011;23763;48.130;11.602;2023-07-13T05:12:16;10.57;;;9.88;;
37937;SDS011;23763;48.130;11.602;2023-07-13T05:14:42;9.18;;;8.57;;
37937;SDS011;23763;48.130;11.602;2023-07-13T05:17:08;10.05;;;9.35;;
37937;SDS011;23763;48.130;11.602;2023-07-13T05:19:34;10.05;;;9.38;;
37937;SDS011;23763;48.130;11.602;2023-07-13T05:22:00;9.93;;;9.32;;
37937;SDS011;23763;48.130;11.602;2023-07-13T05:24:25;10.20;;;9.40;;
37937;SDS011;23763;48.130;11.602;2023-07-13T05:26:51;10.25;;;9.65;;
37937;SDS011;23763;48.130;11.602;2023-07-13T05:29:18;10.13;;;9.55;;
37937;SDS011;23763;48.130;11.602;2023-07-13T05:31:44;9.77;;;8.82;;
37937;SDS011;23763;48.130;11.602;2023-07-13T05:34:09;9.63;;;8.93;;
37937;SDS011;23763;48.130;11.602;2023-07-13T05:36:35;8.30;;;7.90;;
37937;SDS011;23763;48.130;11.602;2023-07-13T05:39:00;9.20;;;8.70;;
37937;SDS011;23763;48.130;11.602;2023-07-13T05:41:28;8.57;;;7.88;;
37937;SDS011;23763;48.130;11.602;2023-07-13T05:43:54;8.90;;;8.35;;
37937;SDS011;23763;48.130;11.602;2023-07-13T05:46:19;7.88;;;7.38;;
37937;SDS011;23763;48.130;11.602;2023-07-13T05:48:45;8.00;;;7.50;;
37937;SDS011;23763;48.130;11.602;2023-07-13T05:51:11;8.32;;;7.63;;
37937;SDS011;23763;48.130;11.602;2023-07-13T05:53:36;7.95;;;7.45;;
37937;SDS011;23763;48.130;11.602;2023-07-13T05:56:05;8.00;;;7.40;;
37937;SDS011;23763;48.130;11.602;2023-07-13T05:58:30;7.45;;;6.95;;
37937;SDS011;23763;48.130;11.602;2023-07-13T06:01:04;8.35;;;7.78;;
37937;SDS011;23763;48.130;11.602;2023-07-13T06:03:31;7.47;;;6.95;;
37937;SDS011;23763;48.130;11.602;2023-07-13T06:05:57;7.18;;;6.68;;
37937;SDS011;23763;48.130;11.602;2023-07-13T06:08:25;7.78;;;7.13;;
37937;SDS011;23763;48.130;11.602;2023-07-13T06:10:51;6.80;;;6.47;;
37937;SDS011;23763;48.130;11.602;2023-07-13T06:13:17;7.80;;;7.13;;
37937;SDS011;23763;48.130;11.602;2023-07-13T06:15:47;8.00;;;7.22;;
37937;SDS011;23763;48.130;11.602;2023-07-13T06:18:16;7.68;;;6.95;;
37937;SDS011;23763;48.130;11.602;2023-07-13T06:20:41;7.45;;;6.80;;
37937;SDS011;23763;48.130;11.602;2023-07-13T06:23:07;7.57;;;6.97;;
37937;SDS011;23763;48.130;11.602;2023-07-13T06:25:33;7.93;;;7.32;;
37937;SDS011;23763;48.130;11.602;2023-07-13T06:27:58;7.47;;;6.88;;
37937;SDS011;23763;48.130;11.602;2023-07-13T06:30:24;7.25;;;6.75;;
37937;SDS011;23763;48.130;11.602;2023-07-13T06:32:49;7.25;;;6.53;;
37937;SDS011;23763;48.130;11.602;2023-07-13T06:35:15;7.05;;;6.45;;
37937;SDS011;23763;48.130;11.602;2023-07-13T06:37:41;7.00;;;6.45;;
37937;SDS011;23763;48.130;11.602;2023-07-13T06:40:06;7.57;;;7.07;;
37937;SDS011;23763;48.130;11.602;2023-07-13T06:42:32;8.30;;;6.65;;
37937;SDS011;23763;48.130;11.602;2023-07-13T06:44:58;7.15;;;6.57;;
37937;SDS011;23763;48.130;11.602;2023-07-13T06:47:23;6.93;;;6.32;;
37937;SDS011;23763;48.130;11.602;2023-07-13T06:49:49;7.53;;;7.03;;
37937;SDS011;23763;48.130;11.602;2023-07-13T06:52:15;7.18;;;6.72;;
37937;SDS011;23763;48.130;11.602;2023-07-13T06:54:40;6.25;;;5.78;;
37937;SDS011;23763;48.130;11.602;2023-07-13T06:57:06;10.13;;;6.50;;
37937;SDS011;23763;48.130;11.602;2023-07-13T06:59:32;6.90;;;6.35;;
37937;SDS011;23763;48.130;11.602;2023-07-13T07:01:57;6.68;;;6.10;;
37937;SDS011;23763;48.130;11.602;2023-07-13T07:04:23;7.47;;;6.88;;
37937;SDS011;23763;48.130;11.602;2023-07-13T07:06:49;7.00;;;6.45;;
37937;SDS011;23763;48.130;11.602;2023-07-13T07:09:14;7.70;;;6.45;;
37937;SDS011;23763;48.130;11.602;2023-07-13T07:11:41;6.43;;;6.03;;
37937;SDS011;23763;48.130;11.602;2023-07-13T07:14:07;7.22;;;6.60;;
37937;SDS011;23763;48.130;11.602;2023-07-13T07:16:33;7.20;;;6.65;;
37937;SDS011;23763;48.130;11.602;2023-07-13T07:18:58;6.45;;;5.68;;
37937;SDS011;23763;48.130;11.602;2023-07-13T07:21:24;6.65;;;6.10;;
37937;SDS011;23763;48.130;11.602;2023-07-13T07:23:51;7.72;;;6.10;;
37937;SDS011;23763;48.130;11.602;2023-07-13T07:26:17;6.47;;;6.05;;
37937;SDS011;23763;48.130;11.602;2023-07-13T07:28:42;8.70;;;6.00;;
37937;SDS011;23763;48.130;11.602;2023-07-13T07:31:08;6.03;;;5.72;;
37937;SDS011;23763;48.130;11.602;2023-07-13T07:33:34;7.00;;;6.47;;
37937;SDS011;23763;48.130;11.602;2023-07-13T07:36:00;6.47;;;5.93;;
37937;SDS011;23763;48.130;11.602;2023-07-13T07:38:26;6.78;;;5.85;;
37937;SDS011;23763;48.130;11.602;2023-07-13T07:40:52;6.57;;;5.97;;
37937;SDS011;23763;48.130;11.602;2023-07-13T07:43:17;6.50;;;6.00;;
37937;SDS011;23763;48.130;11.602;2023-07-13T07:45:44;7.40;;;5.88;;
37937;SDS011;23763;48.130;11.602;2023-07-13T07:48:10;6.40;;;6.00;;
37937;SDS011;23763;48.130;11.602;2023-07-13T07:50:36;6.75;;;6.22;;
37937;SDS011;23763;48.130;11.602;2023-07-13T07:53:02;6.20;;;5.70;;
37937;SDS011;23763;48.130;11.602;2023-07-13T07:55:28;6.32;;;5.68;;
37937;SDS011;23763;48.130;11.602;2023-07-13T07:57:54;9.40;;;6.35;;
37937;SDS011;23763;48.130;11.602;2023-07-13T08:00:21;6.90;;;6.07;;
37937;SDS011;23763;48.130;11.602;2023-07-13T08:02:47;7.15;;;6.60;;
37937;SDS011;23763;48.130;11.602;2023-07-13T08:05:13;6.85;;;6.25;;
37937;SDS011;23763;48.130;11.602;2023-07-13T08:07:39;6.88;;;6.30;;
37937;SDS011;23763;48.130;11.602;2023-07-13T08:10:05;6.72;;;6.13;;
37937;SDS011;23763;48.130;11.602;2023-07-13T08:12:33;6.60;;;6.10;;
37937;SDS011;23763;48.130;11.602;2023-07-13T08:15:03;6.38;;;5.97;;
37937;SDS011;23763;48.130;11.602;2023-07-13T08:17:29;6.43;;;6.00;;
37937;SDS011;23763;48.130;11.602;2023-07-13T08:19:55;7.03;;;6.43;;
37937;SDS011;23763;48.130;11.602;2023-07-13T08:22:20;6.57;;;5.97;;
37937;SDS011;23763;48.130;11.602;2023-07-13T08:24:46;6.35;;;5.85;;
37937;SDS011;23763;48.130;11.602;2023-07-13T08:27:20;6.88;;;6.20;;
37937;SDS011;23763;48.130;11.602;2023-07-13T08:29:45;6.35;;;5.72;;
37937;SDS011;23763;48.130;11.602;2023-07-13T08:32:12;6.93;;;6.28;;
37937;SDS011;23763;48.130;11.602;2023-07-13T08:34:39;6.95;;;6.30;;
37937;SDS011;23763;48.130;11.602;2023-07-13T08:37:05;7.20;;;6.22;;
37937;SDS011;23763;48.130;11.602;2023-07-13T08:39:31;6.72;;;6.22;;
37937;SDS011;23763;48.130;11.602;2023-07-13T08:42:01;6.50;;;6.00;;
37937;SDS011;23763;48.130;11.602;2023-07-13T08:47:28;6.18;;;5.80;;
37937;SDS011;23763;48.130;11.602;2023-07-13T08:49:56;6.05;;;5.55;;
37937;SDS011;23763;48.130;11.602;2023-07-13T08:52:33;5.70;;;5.40;;
37937;SDS011;23763;48.130;11.602;2023-07-13T08:55:05;6.97;;;6.00;;
37937;SDS011;23763;48.130;11.602;2023-07-13T08:57:38;6.07;;;5.57;;
37937;SDS011;23763;48.130;11.602;2023-07-13T09:00:10;6.25;;;5.75;;
37937;SDS011;23763;48.130;11.602;2023-07-13T09:02:51;6.85;;;5.50;;
37937;SDS011;23763;48.130;11.602;2023-07-13T09:05:31;5.72;;;5.30;;
37937;SDS011;23763;48.130;11.602;2023-07-13T09:17:00;6.68;;;6.07;;
37937;SDS011;23763;48.130;11.602;2023-07-13T09:20:03;6.47;;;5.18;;
37937;SDS011;23763;48.130;11.602;2023-07-13T09:22:41;8.07;;;7.38;;
37937;SDS011;23763;48.130;11.602;2023-07-13T09:27:51;6.10;;;5.25;;
37937;SDS011;23763;48.130;11.602;2023-07-13T09:33:23;5.70;;;5.20;;
37937;SDS011;23763;48.130;11.602;2023-07-13T09:35:49;5.80;;;5.40;;
37937;SDS011;23763;48.130;11.602;2023-07-13T09:38:16;6.47;;;5.00;;
37937;SDS011;23763;48.130;11.602;2023-07-13T09:43:18;5.82;;;5.43;;
37937;SDS011;23763;48.130;11.602;2023-07-13T09:45:46;5.70;;;5.30;;
37937;SDS011;23763;48.130;11.602;2023-07-13T09:48:13;7.55;;;5.80;;
37937;SDS011;23763;48.130;11.602;2023-07-13T09:50:41;8.70;;;5.90;;
37937;SDS011;23763;48.130;11.602;2023-07-13T09:53:11;7.70;;;5.90;;
37937;SDS011;23763;48.130;11.602;2023-07-13T09:55:42;8.90;;;6.93;;
37937;SDS011;23763;48.130;11.602;2023-07-13T10:00:43;5.95;;;5.47;;
37937;SDS011;23763;48.130;11.602;2023-07-13T10:05:45;8.88;;;5.82;;
37937;SDS011;23763;48.130;11.602;2023-07-13T10:08:16;5.90;;;5.40;;
37937;SDS011;23763;48.130;11.602;2023-07-13T10:10:44;7.07;;;5.45;;
37937;SDS011;23763;48.130;11.602;2023-07-13T10:13:26;5.80;;;5.40;;
37937;SDS011;23763;48.130;11.602;2023-07-13T10:16:04;8.05;;;6.18;;
37937;SDS011;23763;48.130;11.602;2023-07-13T10:18:38;5.38;;;5.03;;
37937;SDS011;23763;48.130;11.602;2023-07-13T10:21:12;5.68;;;5.28;;
37937;SDS011;23763;48.130;11.602;2023-07-13T10:23:41;5.85;;;5.40;;
37937;SDS011;23763;48.130;11.602;2023-07-13T10:26:10;7.18;;;5.90;;
37937;SDS011;23763;48.130;11.602;2023-07-13T10:28:40;6.25;;;5.65;;
37937;SDS011;23763;48.130;11.602;2023-07-13T10:31:11;5.88;;;5.53;;
37937;SDS011;23763;48.130;11.602;2023-07-13T10:33:39;6.38;;;5.88;;
37937;SDS011;23763;48.130;11.602;2023-07-13T10:38:37;6.15;;;5.65;;
37937;SDS011;23763;48.130;11.602;2023-07-13T10:41:10;6.93;;;5.57;;
37937;SDS011;23763;48.130;11.602;2023-07-13T10:43:44;6.53;;;6.00;;
37937;SDS011;23763;48.130;11.602;2023-07-13T10:46:15;7.30;;;6.80;;
37937;SDS011;23763;48.130;11.602;2023-07-13T10:48:43;9.02;;;8.13;;
37937;SDS011;23763;48.130;11.602;2023-07-13T10:51:13;7.95;;;7.25;;
37937;SDS011;23763;48.130;11.602;2023-07-13T10:53:40;6.03;;;5.68;;
37937;SDS011;23763;48.130;11.602;2023-07-13T10:56:10;6.57;;;5.97;;
37937;SDS011;23763;48.130;11.602;2023-07-13T11:01:48;6.28;;;5.78;;
37937;SDS011;23763;48.130;11.602;2023-07-13T11:04:20;6.88;;;6.20;;
37937;SDS011;23763;48.130;11.602;2023-07-13T11:06:50;6.30;;;5.80;;
37937;SDS011;23763;48.130;11.602;2023-07-13T11:12:10;6.72;;;6.13;;
37937;SDS011;23763;48.130;11.602;2023-07-13T11:15:10;7.63;;;6.95;;
37937;SDS011;23763;48.130;11.602;2023-07-13T11:17:46;6.63;;;6.13;;
37937;SDS011;23763;48.130;11.602;2023-07-13T11:28:04;20.33;;;13.43;;
37937;SDS011;23763;48.130;11.602;2023-07-13T11:30:43;26.85;;;19.30;;
37937;SDS011;23763;48.130;11.602;2023-07-13T11:33:17;15.25;;;12.73;;
37937;SDS011;23763;48.130;11.602;2023-07-13T11:35:46;7.50;;;6.65;;
37937;SDS011;23763;48.130;11.602;2023-07-13T11:38:46;10.50;;;8.25;;
37937;SDS011;23763;48.130;11.602;2023-07-13T11:41:36;6.57;;;5.95;;
37937;SDS011;23763;48.130;11.602;2023-07-13T11:46:39;25.23;;;22.45;;
37937;SDS011;23763;48.130;11.602;2023-07-13T11:49:11;8.38;;;7.63;;
37937;SDS011;23763;48.130;11.602;2023-07-13T11:51:41;10.10;;;5.97;;
37937;SDS011;23763;48.130;11.602;2023-07-13T11:54:13;7.00;;;6.40;;
37937;SDS011;23763;48.130;11.602;2023-07-13T11:56:48;12.50;;;10.63;;
37937;SDS011;23763;48.130;11.602;2023-07-13T11:59:14;6.78;;;6.18;;
37937;SDS011;23763;48.130;11.602;2023-07-13T12:01:44;6.43;;;5.85;;
37937;SDS011;23763;48.130;11.602;2023-07-13T12:04:25;8.30;;;7.50;;
37937;SDS011;23763;48.130;11.602;2023-07-13T12:09:41;6.00;;;5.50;;
37937;SDS011;23763;48.130;11.602;2023-07-13T12:12:10;6.45;;;5.80;;
37937;SDS011;23763;48.130;11.602;2023-07-13T12:14:41;7.50;;;5.75;;
37937;SDS011;23763;48.130;11.602;2023-07-13T12:17:25;6.20;;;5.80;;
37937;SDS011;23763;48.130;11.602;2023-07-13T12:19:52;7.97;;;6.45;;
37937;SDS011;23763;48.130;11.602;2023-07-13T12:22:18;10.60;;;9.70;;
37937;SDS011;23763;48.130;11.602;2023-07-13T12:24:45;8.90;;;6.10;;
37937;SDS011;23763;48.130;11.602;2023-07-13T12:29:52;6.72;;;6.30;;
37937;SDS011;23763;48.130;11.602;2023-07-13T12:32:24;11.45;;;8.38;;
37937;SDS011;23763;48.130;11.602;2023-07-13T12:34:54;5.90;;;5.55;;
37937;SDS011;23763;48.130;11.602;2023-07-13T12:37:23;7.63;;;7.03;;
37937;SDS011;23763;48.130;11.602;2023-07-13T12:39:49;8.35;;;6.03;;
37937;SDS011;23763;48.130;11.602;2023-07-13T12:42:25;5.72;;;5.43;;
37937;SDS011;23763;48.130;11.602;2023-07-13T12:45:03;5.65;;;5.10;;
37937;SDS011;23763;48.130;11.602;2023-07-13T12:47:47;6.70;;;5.55;;
37937;SDS011;23763;48.130;11.602;2023-07-13T12:50:19;6.07;;;5.65;;
37937;SDS011;23763;48.130;11.602;2023-07-13T12:52:51;6.00;;;5.50;;
37937;SDS011;23763;48.130;11.602;2023-07-13T12:55:22;6.10;;;5.68;;
37937;SDS011;23763;48.130;11.602;2023-07-13T12:57:53;6.07;;;5.57;;
37937;SDS011;23763;48.130;11.602;2023-07-13T13:00:35;6.63;;;5.97;;
37937;SDS011;23763;48.130;11.602;2023-07-13T13:03:05;6.07;;;5.65;;
37937;SDS011;23763;48.130;11.602;2023-07-13T13:05:44;7.00;;;5.97;;
37937;SDS011;23763;48.130;11.602;2023-07-13T13:08:13;6.68;;;6.18;;
37937;SDS011;23763;48.130;11.602;2023-07-13T13:10:39;6.22;;;5.68;;
37937;SDS011;23763;48.130;11.602;2023-07-13T13:13:04;5.22;;;4.80;;
37937;SDS011;23763;48.130;11.602;2023-07-13T13:15:30;5.82;;;5.25;;
37937;SDS011;23763;48.130;11.602;2023-07-13T13:17:56;5.82;;;5.43;;
37937;SDS011;23763;48.130;11.602;2023-07-13T13:20:23;5.90;;;5.40;;
37937;SDS011;23763;48.130;11.602;2023-07-13T13:22:50;7.03;;;6.38;;
37937;SDS011;23763;48.130;11.602;2023-07-13T13:25:16;5.90;;;5.50;;
37937;SDS011;23763;48.130;11.602;2023-07-13T13:27:42;6.72;;;5.75;;
37937;SDS011;23763;48.130;11.602;2023-07-13T13:30:13;5.68;;;5.22;;
37937;SDS011;23763;48.130;11.602;2023-07-13T13:32:40;5.97;;;5.65;;
37937;SDS011;23763;48.130;11.602;2023-07-13T13:35:13;6.03;;;5.63;;
37937;SDS011;23763;48.130;11.602;2023-07-13T13:37:40;14.45;;;12.95;;
37937;SDS011;23763;48.130;11.602;2023-07-13T13:40:40;6.10;;;5.53;;
37937;SDS011;23763;48.130;11.602;2023-07-13T13:42:58;6.32;;;5.72;;
37937;SDS011;23763;48.130;11.602;2023-07-13T13:45:24;6.00;;;5.70;;
37937;SDS011;23763;48.130;11.602;2023-07-13T13:47:50;5.70;;;5.35;;
37937;SDS011;23763;48.130;11.602;2023-07-13T13:50:16;6.00;;;5.50;;
37937;SDS011;23763;48.130;11.602;2023-07-13T13:52:45;6.45;;;6.05;;
37937;SDS011;23763;48.130;11.602;2023-07-13T13:55:11;6.75;;;6.00;;
37937;SDS011;23763;48.130;11.602;2023-07-13T13:57:42;5.97;;;5.57;;
37937;SDS011;23763;48.130;11.602;2023-07-13T14:00:09;5.70;;;5.28;;
37937;SDS011;23763;48.130;11.602;2023-07-13T14:02:39;5.63;;;5.05;;
37937;SDS011;23763;48.130;11.602;2023-07-13T14:05:10;5.47;;;5.18;;
37937;SDS011;23763;48.130;11.602;2023-07-13T14:07:38;6.03;;;5.53;;
37937;SDS011;23763;48.130;11.602;2023-07-13T14:10:14;6.97;;;6.35;;
37937;SDS011;23763;48.130;11.602;2023-07-13T14:12:42;5.80;;;5.40;;
37937;SDS011;23763;48.130;11.602;2023-07-13T14:15:13;6.57;;;6.18;;
37937;SDS011;23763;48.130;11.602;2023-07-13T14:17:45;6.28;;;5.78;;
37937;SDS011;23763;48.130;11.602;2023-07-13T14:20:11;5.47;;;5.15;;
37937;SDS011;23763;48.130;11.602;2023-07-13T14:22:39;5.65;;;5.22;;
37937;SDS011;23763;48.130;11.602;2023-07-13T14:25:04;7.50;;;5.43;;
37937;SDS011;23763;48.130;11.602;2023-07-13T14:27:30;5.57;;;5.18;;
37937;SDS011;23763;48.130;11.602;2023-07-13T14:29:56;5.70;;;5.30;;
37937;SDS011;23763;48.130;11.602;2023-07-13T14:32:22;6.03;;;5.63;;
37937;SDS011;23763;48.130;11.602;2023-07-13T14:34:47;6.13;;;5.68;;
37937;SDS011;23763;48.130;11.602;2023-07-13T14:37:13;5.68;;;5.38;;
37937;SDS011;23763;48.130;11.602;2023-07-13T14:39:42;5.97;;;5.57;;
37937;SDS011;23763;48.130;11.602;2023-07-13T14:42:09;5.90;;;5.40;;
37937;SDS011;23763;48.130;11.602;2023-07-13T14:44:35;5.80;;;5.32;;
37937;SDS011;23763;48.130;11.602;2023-07-13T14:47:01;5.57;;;5.28;;
37937;SDS011;23763;48.130;11.602;2023-07-13T14:49:33;5.00;;;4.60;;
37937;SDS011;23763;48.130;11.602;2023-07-13T14:52:02;6.30;;;5.85;;
37937;SDS011;23763;48.130;11.602;2023-07-13T14:54:49;5.97;;;5.57;;
37937;SDS011;23763;48.130;11.602;2023-07-13T14:57:18;7.57;;;6.90;;
37937;SDS011;23763;48.130;11.602;2023-07-13T14:59:45;5.93;;;5.43;;
37937;SDS011;23763;48.130;11.602;2023-07-13T15:02:30;7.43;;;5.45;;
37937;SDS011;23763;48.130;11.602;2023-07-13T15:05:05;6.10;;;5.70;;
37937;SDS011;23763;48.130;11.602;2023-07-13T15:07:37;6.55;;;5.93;;
37937;SDS011;23763;48.130;11.602;2023-07-13T15:10:11;6.07;;;5.68;;
37937;SDS011;23763;48.130;11.602;2023-07-13T15:12:46;6.00;;;5.60;;
37937;SDS011;23763;48.130;11.602;2023-07-13T15:15:12;6.10;;;5.80;;
37937;SDS011;23763;48.130;11.602;2023-07-13T15:17:42;5.75;;;5.32;;
37937;SDS011;23763;48.130;11.602;2023-07-13T15:22:52;5.53;;;5.22;;
37937;SDS011;23763;48.130;11.602;2023-07-13T15:25:19;7.53;;;5.50;;
37937;SDS011;23763;48.130;11.602;2023-07-13T15:27:47;6.03;;;5.53;;
37937;SDS011;23763;48.130;11.602;2023-07-13T15:30:13;10.40;;;5.45;;
37937;SDS011;23763;48.130;11.602;2023-07-13T15:32:39;6.20;;;5.80;;